sensor_id;sensor_type;location;lat;lon;timestamp;pressure;altitude;pressure_sealevel;temperature;humidity
70521;BME280;58442;52.716;23.560;2022-10-16T00:00:41;101674.01;;;13.32;77.42
70521;BME280;58442;52.716;23.560;2022-10-16T00:02:42;101680.71;;;13.34;77.31
70521;BME280;58442;52.716;23.560;2022-10-16T00:04:44;101682.65;;;13.34;77.26
70521;BME280;58442;52.716;23.560;2022-10-16T00:06:53;101680.37;;;13.36;76.95
70521;BME280;58442;52.716;23.560;2022-10-16T00:08:54;101685.83;;;13.36;77.20
70521;BME280;58442;52.716;23.560;2022-10-16T00:11:03;101685.83;;;13.36;77.18
70521;BME280;58442;52.716;23.560;2022-10-16T00:13:05;101683.54;;;13.38;77.13
70521;BME280;58442;52.716;23.560;2022-10-16T00:15:08;101689.48;;;13.40;77.05
70521;BME280;58442;52.716;23.560;2022-10-16T00:17:10;101688.34;;;13.41;77.00
70521;BME280;58442;52.716;23.560;2022-10-16T00:19:11;101693.79;;;13.41;76.92
70521;BME280;58442;52.716;23.560;2022-10-16T00:21:19;101677.41;;;13.41;76.90
70521;BME280;58442;52.716;23.560;2022-10-16T00:23:23;101677.41;;;13.41;76.85
70521;BME280;58442;52.716;23.560;2022-10-16T00:25:24;101674.23;;;13.39;76.86
70521;BME280;58442;52.716;23.560;2022-10-16T00:27:25;101679.34;;;13.40;76.85
70521;BME280;58442;52.716;23.560;2022-10-16T00:29:26;101681.28;;;13.40;76.84
70521;BME280;58442;52.716;23.560;2022-10-16T00:31:38;101673.88;;;13.40;76.77
70521;BME280;58442;52.716;23.560;2022-10-16T00:33:40;101681.28;;;13.40;76.75
70521;BME280;58442;52.716;23.560;2022-10-16T00:35:41;101685.16;;;13.39;76.76
70521;BME280;58442;52.716;23.560;2022-10-16T00:37:43;101691.41;;;13.39;76.75
70521;BME280;58442;52.716;23.560;2022-10-16T00:39:52;101687.41;;;13.37;76.74
70521;BME280;58442;52.716;23.560;2022-10-16T00:41:54;101683.09;;;13.36;76.79
70521;BME280;58442;52.716;23.560;2022-10-16T00:43:57;101691.28;;;13.36;76.76
70521;BME280;58442;52.716;23.560;2022-10-16T00:46:00;101692.88;;;13.37;76.71
70521;BME280;58442;52.716;23.560;2022-10-16T00:48:11;101692.09;;;13.36;76.67
70521;BME280;58442;52.716;23.560;2022-10-16T00:52:30;101681.95;;;13.37;76.64
70521;BME280;58442;52.716;23.560;2022-10-16T00:54:32;101699.13;;;13.37;76.59
70521;BME280;58442;52.716;23.560;2022-10-16T00:56:33;101695.29;;;13.38;76.56
70521;BME280;58442;52.716;23.560;2022-10-16T00:58:35;101701.20;;;13.40;76.47
70521;BME280;58442;52.716;23.560;2022-10-16T01:00:36;101687.54;;;13.40;76.44
70521;BME280;58442;52.716;23.560;2022-10-16T01:02:38;101699.26;;;13.41;76.39
70521;BME280;58442;52.716;23.560;2022-10-16T01:04:50;101701.64;;;13.43;76.34
70521;BME280;58442;52.716;23.560;2022-10-16T01:09:13;101709.84;;;13.43;76.24
70521;BME280;58442;52.716;23.560;2022-10-16T01:13:45;101710.63;;;13.43;76.16
70521;BME280;58442;52.716;23.560;2022-10-16T01:15:52;101716.56;;;13.45;76.08
70521;BME280;58442;52.716;23.560;2022-10-16T01:18:05;101714.95;;;13.44;75.98
70521;BME280;58442;52.716;23.560;2022-10-16T01:25:00;101715.29;;;13.43;75.91
70521;BME280;58442;52.716;23.560;2022-10-16T01:29:26;101720.30;;;13.40;75.88
70521;BME280;58442;52.716;23.560;2022-10-16T01:31:34;101712.91;;;13.41;75.86
70521;BME280;58442;52.716;23.560;2022-10-16T01:33:45;101712.91;;;13.41;75.79
70521;BME280;58442;52.716;23.560;2022-10-16T01:35:53;101720.30;;;13.40;75.79
70521;BME280;58442;52.716;23.560;2022-10-16T01:40:12;101726.12;;;13.39;75.73
70521;BME280;58442;52.716;23.560;2022-10-16T01:42:21;101733.51;;;13.38;75.75
70521;BME280;58442;52.716;23.560;2022-10-16T01:44:33;101721.77;;;13.38;75.69
70521;BME280;58442;52.716;23.560;2022-10-16T01:46:39;101728.37;;;13.37;75.63
70521;BME280;58442;52.716;23.560;2022-10-16T01:48:41;101730.66;;;13.35;75.65
70521;BME280;58442;52.716;23.560;2022-10-16T01:50:44;101733.38;;;13.35;75.64
70521;BME280;58442;52.716;23.560;2022-10-16T01:52:52;101727.91;;;13.35;75.62
70521;BME280;58442;52.716;23.560;2022-10-16T01:54:59;101726.68;;;13.32;75.59
70521;BME280;58442;52.716;23.560;2022-10-16T01:57:11;101738.27;;;13.29;75.63
70521;BME280;58442;52.716;23.560;2022-10-16T01:59:18;101738.63;;;13.28;75.65
70521;BME280;58442;52.716;23.560;2022-10-16T02:01:23;101736.23;;;13.26;75.64
70521;BME280;58442;52.716;23.560;2022-10-16T02:03:25;101746.68;;;13.24;75.68
70521;BME280;58442;52.716;23.560;2022-10-16T02:07:47;101739.63;;;13.23;75.64
70521;BME280;58442;52.716;23.560;2022-10-16T02:09:49;101739.18;;;13.21;75.63
70521;BME280;58442;52.716;23.560;2022-10-16T02:11:54;101744.96;;;13.20;75.63
70521;BME280;58442;52.716;23.560;2022-10-16T02:14:05;101746.41;;;13.17;75.65
70521;BME280;58442;52.716;23.560;2022-10-16T02:16:09;101756.23;;;13.18;75.62
70521;BME280;58442;52.716;23.560;2022-10-16T02:18:11;101746.10;;;13.19;75.57
70521;BME280;58442;52.716;23.560;2022-10-16T02:20:12;101760.88;;;13.18;75.53
70521;BME280;58442;52.716;23.560;2022-10-16T02:26:50;101753.70;;;13.13;75.56
70521;BME280;58442;52.716;23.560;2022-10-16T02:29:05;101748.91;;;13.10;75.61
70521;BME280;58442;52.716;23.560;2022-10-16T02:31:11;101751.19;;;13.08;75.69
70521;BME280;58442;52.716;23.560;2022-10-16T02:33:15;101743.35;;;13.06;75.71
70521;BME280;58442;52.716;23.560;2022-10-16T02:35:20;101750.40;;;13.07;75.67
70521;BME280;58442;52.716;23.560;2022-10-16T02:37:21;101744.15;;;13.07;75.64
70521;BME280;58442;52.716;23.560;2022-10-16T02:39:23;101748.02;;;13.06;75.63
70521;BME280;58442;52.716;23.560;2022-10-16T02:41:25;101745.63;;;13.04;75.64
70521;BME280;58442;52.716;23.560;2022-10-16T02:43:26;101746.29;;;13.01;75.67
70521;BME280;58442;52.716;23.560;2022-10-16T02:45:33;101748.58;;;12.99;75.72
70521;BME280;58442;52.716;23.560;2022-10-16T02:47:34;101739.94;;;12.97;75.77
70521;BME280;58442;52.716;23.560;2022-10-16T02:49:35;101758.22;;;12.97;75.80
70521;BME280;58442;52.716;23.560;2022-10-16T02:51:36;101749.23;;;12.96;75.78
70521;BME280;58442;52.716;23.560;2022-10-16T02:53:48;101750.02;;;12.97;75.78
70521;BME280;58442;52.716;23.560;2022-10-16T02:55:49;101747.30;;;12.97;75.78
70521;BME280;58442;52.716;23.560;2022-10-16T02:57:50;101743.77;;;12.96;75.77
70521;BME280;58442;52.716;23.560;2022-10-16T02:59:51;101738.32;;;12.96;75.76
70521;BME280;58442;52.716;23.560;2022-10-16T03:02:03;101741.05;;;12.96;75.74
70521;BME280;58442;52.716;23.560;2022-10-16T03:04:04;101742.67;;;12.97;75.71
70521;BME280;58442;52.716;23.560;2022-10-16T03:06:05;101739.94;;;12.97;75.69
70521;BME280;58442;52.716;23.560;2022-10-16T03:08:07;101744.57;;;12.97;75.66
70521;BME280;58442;52.716;23.560;2022-10-16T03:10:17;101750.85;;;12.97;75.66
70521;BME280;58442;52.716;23.560;2022-10-16T03:12:18;101742.32;;;12.99;75.60
70521;BME280;58442;52.716;23.560;2022-10-16T03:14:20;101750.02;;;12.97;75.51
70521;BME280;58442;52.716;23.560;2022-10-16T03:16:21;101741.05;;;12.96;75.60
70521;BME280;58442;52.716;23.560;2022-10-16T03:18:32;101731.27;;;12.95;75.60
70521;BME280;58442;52.716;23.560;2022-10-16T03:20:33;101735.14;;;12.94;75.58
70521;BME280;58442;52.716;23.560;2022-10-16T03:22:34;101754.23;;;12.94;75.55
70521;BME280;58442;52.716;23.560;2022-10-16T03:24:36;101753.78;;;12.92;75.55
70521;BME280;58442;52.716;23.560;2022-10-16T03:26:47;101757.66;;;12.91;75.52
70521;BME280;58442;52.716;23.560;2022-10-16T03:28:48;101755.24;;;12.90;75.51
70521;BME280;58442;52.716;23.560;2022-10-16T03:30:49;101757.52;;;12.87;75.49
70521;BME280;58442;52.716;23.560;2022-10-16T03:32:50;101763.98;;;12.83;75.56
70521;BME280;58442;52.716;23.560;2022-10-16T03:35:02;101765.80;;;12.79;75.64
70521;BME280;58442;52.716;23.560;2022-10-16T03:37:03;101768.09;;;12.77;75.68
70521;BME280;58442;52.716;23.560;2022-10-16T03:39:05;101766.45;;;12.76;75.69
70521;BME280;58442;52.716;23.560;2022-10-16T03:41:06;101771.47;;;12.74;75.70
70521;BME280;58442;52.716;23.560;2022-10-16T03:43:17;101766.70;;;12.71;75.69
70521;BME280;58442;52.716;23.560;2022-10-16T03:45:18;101769.28;;;12.67;75.72
70521;BME280;58442;52.716;23.560;2022-10-16T03:47:19;101773.49;;;12.65;75.70
70521;BME280;58442;52.716;23.560;2022-10-16T03:49:23;101773.84;;;12.63;75.72
70521;BME280;58442;52.716;23.560;2022-10-16T03:51:32;101763.91;;;12.58;75.75
70521;BME280;58442;52.716;23.560;2022-10-16T03:53:33;101773.23;;;12.57;75.75
70521;BME280;58442;52.716;23.560;2022-10-16T03:55:34;101773.89;;;12.54;75.73
70521;BME280;58442;52.716;23.560;2022-10-16T03:57:36;101762.07;;;12.50;75.79
70521;BME280;58442;52.716;23.560;2022-10-16T03:59:47;101768.19;;;12.47;75.80
70521;BME280;58442;52.716;23.560;2022-10-16T04:01:48;101773.18;;;12.45;75.79
70521;BME280;58442;52.716;23.560;2022-10-16T04:03:50;101774.31;;;12.44;75.78
70521;BME280;58442;52.716;23.560;2022-10-16T04:05:51;101777.70;;;12.41;75.78
70521;BME280;58442;52.716;23.560;2022-10-16T04:08:02;101780.30;;;12.38;75.82
70521;BME280;58442;52.716;23.560;2022-10-16T04:10:04;101782.89;;;12.34;75.90
70521;BME280;58442;52.716;23.560;2022-10-16T04:12:05;101779.26;;;12.30;75.96
70521;BME280;58442;52.716;23.560;2022-10-16T04:14:06;101778.76;;;12.28;76.01
70521;BME280;58442;52.716;23.560;2022-10-16T04:16:18;101781.03;;;12.26;76.02
70521;BME280;58442;52.716;23.560;2022-10-16T04:18:19;101777.05;;;12.23;76.02
70521;BME280;58442;52.716;23.560;2022-10-16T04:20:20;101778.50;;;12.21;76.00
70521;BME280;58442;52.716;23.560;2022-10-16T04:22:22;101787.35;;;12.18;76.01
70521;BME280;58442;52.716;23.560;2022-10-16T04:24:33;101786.89;;;12.16;76.00
70521;BME280;58442;52.716;23.560;2022-10-16T04:26:34;101789.13;;;12.14;75.96
70521;BME280;58442;52.716;23.560;2022-10-16T04:28:35;101782.43;;;12.11;76.00
70521;BME280;58442;52.716;23.560;2022-10-16T04:30:39;101790.00;;;12.05;76.07
70521;BME280;58442;52.716;23.560;2022-10-16T04:34:56;101788.59;;;11.99;76.10
70521;BME280;58442;52.716;23.560;2022-10-16T04:36:57;101787.68;;;11.95;76.07
70521;BME280;58442;52.716;23.560;2022-10-16T04:38:58;101782.88;;;11.92;76.11
70521;BME280;58442;52.716;23.560;2022-10-16T04:41:03;101787.07;;;11.90;76.16
70521;BME280;58442;52.716;23.560;2022-10-16T04:43:05;101783.40;;;11.86;76.19
70521;BME280;58442;52.716;23.560;2022-10-16T04:45:08;101792.58;;;11.81;76.24
70521;BME280;58442;52.716;23.560;2022-10-16T04:47:09;101788.88;;;11.77;76.33
70521;BME280;58442;52.716;23.560;2022-10-16T04:49:17;101789.05;;;11.72;76.40
70521;BME280;58442;52.716;23.560;2022-10-16T04:51:19;101784.28;;;11.69;76.52
70521;BME280;58442;52.716;23.560;2022-10-16T04:53:20;101785.41;;;11.68;76.53
70521;BME280;58442;52.716;23.560;2022-10-16T04:55:21;101790.36;;;11.66;76.51
70521;BME280;58442;52.716;23.560;2022-10-16T04:57:32;101791.03;;;11.63;76.59
70521;BME280;58442;52.716;23.560;2022-10-16T04:59:34;101796.02;;;11.61;76.62
70521;BME280;58442;52.716;23.560;2022-10-16T05:01:35;101788.49;;;11.58;76.67
70521;BME280;58442;52.716;23.560;2022-10-16T05:03:36;101795.07;;;11.57;76.68
70521;BME280;58442;52.716;23.560;2022-10-16T05:05:47;101789.95;;;11.55;76.77
70521;BME280;58442;52.716;23.560;2022-10-16T05:07:49;101799.38;;;11.58;76.75
70521;BME280;58442;52.716;23.560;2022-10-16T05:09:52;101795.07;;;11.57;76.68
70521;BME280;58442;52.716;23.560;2022-10-16T05:11:54;101790.29;;;11.54;76.72
70521;BME280;58442;52.716;23.560;2022-10-16T05:14:02;101796.37;;;11.50;76.78
70521;BME280;58442;52.716;23.560;2022-10-16T05:16:04;101801.82;;;11.50;76.80
70521;BME280;58442;52.716;23.560;2022-10-16T05:18:05;101802.95;;;11.49;76.79
70521;BME280;58442;52.716;23.560;2022-10-16T05:20:07;101801.35;;;11.48;76.84
70521;BME280;58442;52.716;23.560;2022-10-16T05:22:17;101804.07;;;11.48;76.89
70521;BME280;58442;52.716;23.560;2022-10-16T05:24:18;101807.60;;;11.49;76.87
70521;BME280;58442;52.716;23.560;2022-10-16T05:26:19;101803.61;;;11.46;76.88
70521;BME280;58442;52.716;23.560;2022-10-16T05:28:21;101810.64;;;11.47;76.90
70521;BME280;58442;52.716;23.560;2022-10-16T05:30:32;101817.22;;;11.46;76.96
70521;BME280;58442;52.716;23.560;2022-10-16T05:32:33;101821.84;;;11.46;76.98
70521;BME280;58442;52.716;23.560;2022-10-16T05:34:34;101813.68;;;11.46;76.98
70521;BME280;58442;52.716;23.560;2022-10-16T05:36:36;101821.54;;;11.47;76.97
70521;BME280;58442;52.716;23.560;2022-10-16T05:38:50;101832.89;;;11.49;76.95
70521;BME280;58442;52.716;23.560;2022-10-16T05:40:52;101830.17;;;11.49;76.96
70521;BME280;58442;52.716;23.560;2022-10-16T05:42:56;101837.21;;;11.50;77.04
70521;BME280;58442;52.716;23.560;2022-10-16T05:44:57;101833.05;;;11.53;77.11
70521;BME280;58442;52.716;23.560;2022-10-16T05:47:01;101828.87;;;11.56;77.12
70521;BME280;58442;52.716;23.560;2022-10-16T05:49:03;101837.49;;;11.58;77.13
70521;BME280;58442;52.716;23.560;2022-10-16T05:51:06;101840.39;;;11.61;77.12
70521;BME280;58442;52.716;23.560;2022-10-16T05:53:07;101844.37;;;11.64;77.03
70521;BME280;58442;52.716;23.560;2022-10-16T05:55:16;101842.10;;;11.66;77.01
70521;BME280;58442;52.716;23.560;2022-10-16T05:57:17;101851.90;;;11.67;77.03
70521;BME280;58442;52.716;23.560;2022-10-16T05:59:19;101850.09;;;11.71;77.03
70521;BME280;58442;52.716;23.560;2022-10-16T06:01:20;101849.92;;;11.76;76.97
70521;BME280;58442;52.716;23.560;2022-10-16T06:03:31;101846.53;;;11.79;76.97
70521;BME280;58442;52.716;23.560;2022-10-16T06:05:32;101842.40;;;11.82;76.93
70521;BME280;58442;52.716;23.560;2022-10-16T06:07:35;101847.98;;;11.85;76.93
70521;BME280;58442;52.716;23.560;2022-10-16T06:09:36;101851.66;;;11.89;76.89
70521;BME280;58442;52.716;23.560;2022-10-16T06:11:46;101849.84;;;11.93;76.82
70521;BME280;58442;52.716;23.560;2022-10-16T06:13:51;101847.62;;;11.95;76.80
70521;BME280;58442;52.716;23.560;2022-10-16T06:15:56;101846.95;;;11.98;76.78
70521;BME280;58442;52.716;23.560;2022-10-16T06:17:57;101858.79;;;12.02;76.75
70521;BME280;58442;52.716;23.560;2022-10-16T06:20:01;101855.06;;;12.07;76.70
70521;BME280;58442;52.716;23.560;2022-10-16T06:22:02;101865.31;;;12.10;76.68
70521;BME280;58442;52.716;23.560;2022-10-16T06:24:05;101861.13;;;12.13;76.64
70521;BME280;58442;52.716;23.560;2022-10-16T06:26:11;101855.03;;;12.16;76.61
70521;BME280;58442;52.716;23.560;2022-10-16T06:28:16;101855.95;;;12.20;76.59
70521;BME280;58442;52.716;23.560;2022-10-16T06:30:17;101853.38;;;12.23;76.58
70521;BME280;58442;52.716;23.560;2022-10-16T06:32:18;101855.43;;;12.26;76.55
70521;BME280;58442;52.716;23.560;2022-10-16T06:34:20;101868.88;;;12.31;76.52
70521;BME280;58442;52.716;23.560;2022-10-16T06:36:31;101869.81;;;12.36;76.48
70521;BME280;58442;52.716;23.560;2022-10-16T06:38:32;101874.26;;;12.40;76.39
70521;BME280;58442;52.716;23.560;2022-10-16T06:40:33;101882.24;;;12.45;76.34
70521;BME280;58442;52.716;23.560;2022-10-16T06:42:35;101879.64;;;12.49;76.23
70521;BME280;58442;52.716;23.560;2022-10-16T06:44:45;101874.79;;;12.54;76.20
70521;BME280;58442;52.716;23.560;2022-10-16T06:46:47;101878.92;;;12.60;76.12
70521;BME280;58442;52.716;23.560;2022-10-16T06:48:48;101883.05;;;12.67;76.04
70521;BME280;58442;52.716;23.560;2022-10-16T06:50:59;101896.61;;;12.75;75.94
70521;BME280;58442;52.716;23.560;2022-10-16T06:53:00;101882.91;;;12.84;75.82
70521;BME280;58442;52.716;23.560;2022-10-16T06:55:01;101887.01;;;12.90;75.74
70521;BME280;58442;52.716;23.560;2022-10-16T06:57:03;101889.68;;;12.99;75.64
70521;BME280;58442;52.716;23.560;2022-10-16T06:59:04;101899.70;;;13.07;75.54
70521;BME280;58442;52.716;23.560;2022-10-16T07:01:17;101898.03;;;13.14;75.44
70521;BME280;58442;52.716;23.560;2022-10-16T07:03:18;101897.97;;;13.23;75.37
70521;BME280;58442;52.716;23.560;2022-10-16T07:05:19;101902.57;;;13.31;75.25
70521;BME280;58442;52.716;23.560;2022-10-16T07:07:20;101910.66;;;13.40;75.10
70521;BME280;58442;52.716;23.560;2022-10-16T07:09:30;101907.83;;;13.49;74.92
70521;BME280;58442;52.716;23.560;2022-10-16T07:11:32;101907.63;;;13.54;74.82
70521;BME280;58442;52.716;23.560;2022-10-16T07:13:38;101902.40;;;13.61;74.73
70521;BME280;58442;52.716;23.560;2022-10-16T07:15:40;101911.63;;;13.68;74.61
70521;BME280;58442;52.716;23.560;2022-10-16T07:17:45;101905.26;;;13.77;74.51
70521;BME280;58442;52.716;23.560;2022-10-16T07:19:46;101908.22;;;13.84;74.47
70521;BME280;58442;52.716;23.560;2022-10-16T07:21:47;101910.05;;;13.92;74.22
70521;BME280;58442;52.716;23.560;2022-10-16T07:23:55;101910.27;;;13.99;74.08
70521;BME280;58442;52.716;23.560;2022-10-16T07:26:00;101911.20;;;14.03;73.97
70521;BME280;58442;52.716;23.560;2022-10-16T07:28:01;101923.05;;;14.07;73.91
70521;BME280;58442;52.716;23.560;2022-10-16T07:30:03;101923.95;;;14.11;73.83
70521;BME280;58442;52.716;23.560;2022-10-16T07:32:05;101928.75;;;14.14;73.76
70521;BME280;58442;52.716;23.560;2022-10-16T07:34:16;101935.91;;;14.19;73.66
70521;BME280;58442;52.716;23.560;2022-10-16T07:36:19;101930.56;;;14.22;73.56
70521;BME280;58442;52.716;23.560;2022-10-16T07:38:21;101935.34;;;14.26;73.51
70521;BME280;58442;52.716;23.560;2022-10-16T07:40:22;101937.05;;;14.30;73.40
70521;BME280;58442;52.716;23.560;2022-10-16T07:42:29;101941.02;;;14.33;73.30
70521;BME280;58442;52.716;23.560;2022-10-16T07:44:31;101941.02;;;14.33;73.26
70521;BME280;58442;52.716;23.560;2022-10-16T07:46:32;101938.77;;;14.35;73.19
70521;BME280;58442;52.716;23.560;2022-10-16T07:48:36;101945.02;;;14.35;73.18
70521;BME280;58442;52.716;23.560;2022-10-16T07:50:45;101945.83;;;14.36;73.09
70521;BME280;58442;52.716;23.560;2022-10-16T07:52:46;101949.71;;;14.35;73.09
70521;BME280;58442;52.716;23.560;2022-10-16T07:54:47;101942.73;;;14.37;73.02
70521;BME280;58442;52.716;23.560;2022-10-16T07:56:48;101945.57;;;14.41;72.93
70521;BME280;58442;52.716;23.560;2022-10-16T07:58:59;101943.66;;;14.41;72.83
70521;BME280;58442;52.716;23.560;2022-10-16T08:01:03;101946.96;;;14.47;72.75
70521;BME280;58442;52.716;23.560;2022-10-16T08:03:05;101949.48;;;14.52;72.66
70521;BME280;58442;52.716;23.560;2022-10-16T08:05:07;101948.90;;;14.59;72.57
70521;BME280;58442;52.716;23.560;2022-10-16T08:07:14;101936.93;;;14.63;72.47
70521;BME280;58442;52.716;23.560;2022-10-16T08:09:15;101943.28;;;14.67;72.41
70521;BME280;58442;52.716;23.560;2022-10-16T08:11:16;101939.16;;;14.73;72.29
70521;BME280;58442;52.716;23.560;2022-10-16T08:13:18;101942.91;;;14.81;72.17
70521;BME280;58442;52.716;23.560;2022-10-16T08:15:29;101940.38;;;14.88;72.07
70521;BME280;58442;52.716;23.560;2022-10-16T08:17:30;101940.59;;;14.95;71.94
70521;BME280;58442;52.716;23.560;2022-10-16T08:19:31;101940.78;;;15.02;71.88
70521;BME280;58442;52.716;23.560;2022-10-16T08:21:35;101948.41;;;15.09;71.82
70521;BME280;58442;52.716;23.560;2022-10-16T08:23:43;101947.38;;;15.14;71.67
70521;BME280;58442;52.716;23.560;2022-10-16T08:25:45;101941.54;;;15.15;71.54
70521;BME280;58442;52.716;23.560;2022-10-16T08:27:46;101945.87;;;15.16;71.47
70521;BME280;58442;52.716;23.560;2022-10-16T08:29:50;101944.75;;;15.17;71.41
70521;BME280;58442;52.716;23.560;2022-10-16T08:31:58;101947.14;;;15.19;71.35
70521;BME280;58442;52.716;23.560;2022-10-16T08:34:00;101952.37;;;15.24;71.20
70521;BME280;58442;52.716;23.560;2022-10-16T08:36:02;101950.07;;;15.26;71.16
70521;BME280;58442;52.716;23.560;2022-10-16T08:38:05;101947.88;;;15.31;71.11
70521;BME280;58442;52.716;23.560;2022-10-16T08:40:18;101941.88;;;15.42;70.99
70521;BME280;58442;52.716;23.560;2022-10-16T08:49:03;101933.45;;;15.63;70.51
70521;BME280;58442;52.716;23.560;2022-10-16T08:51:07;101932.20;;;15.60;70.53
70521;BME280;58442;52.716;23.560;2022-10-16T08:53:18;101929.13;;;15.62;70.46
70521;BME280;58442;52.716;23.560;2022-10-16T08:57:34;101915.70;;;15.72;70.24
70521;BME280;58442;52.716;23.560;2022-10-16T08:59:35;101919.49;;;15.83;70.10
70521;BME280;58442;52.716;23.560;2022-10-16T09:02:39;101917.09;;;15.98;69.90
70521;BME280;58442;52.716;23.560;2022-10-16T09:09:23;101914.75;;;16.31;69.32
70521;BME280;58442;52.716;23.560;2022-10-16T09:11:34;101907.47;;;16.39;69.14
70521;BME280;58442;52.716;23.560;2022-10-16T09:18:27;101936.69;;;16.47;68.82
70521;BME280;58442;52.716;23.560;2022-10-16T09:23:10;101933.85;;;16.44;68.79
70521;BME280;58442;52.716;23.560;2022-10-16T09:25:21;101932.69;;;16.45;68.78
70521;BME280;58442;52.716;23.560;2022-10-16T09:27:23;101931.99;;;16.48;68.71
70521;BME280;58442;52.716;23.560;2022-10-16T09:29:24;101924.24;;;16.53;68.61
70521;BME280;58442;52.716;23.560;2022-10-16T09:31:25;101917.31;;;16.59;68.45
70521;BME280;58442;52.716;23.560;2022-10-16T09:33:38;101922.96;;;16.66;68.33
70521;BME280;58442;52.716;23.560;2022-10-16T09:35:50;101923.61;;;16.76;68.17
70521;BME280;58442;52.716;23.560;2022-10-16T09:37:54;101930.83;;;16.84;68.08
70521;BME280;58442;52.716;23.560;2022-10-16T09:39:55;101930.54;;;16.89;67.98
70521;BME280;58442;52.716;23.560;2022-10-16T09:41:57;101930.98;;;16.91;67.91
70521;BME280;58442;52.716;23.560;2022-10-16T09:44:00;101938.48;;;16.94;67.80
70521;BME280;58442;52.716;23.560;2022-10-16T09:46:07;101944.85;;;16.98;67.71
70521;BME280;58442;52.716;23.560;2022-10-16T09:48:18;101929.31;;;17.06;67.54
70521;BME280;58442;52.716;23.560;2022-10-16T09:50:25;101934.56;;;17.14;67.42
70521;BME280;58442;52.716;23.560;2022-10-16T09:52:33;101931.16;;;17.21;67.29
70521;BME280;58442;52.716;23.560;2022-10-16T09:54:34;101941.63;;;17.35;67.10
70521;BME280;58442;52.716;23.560;2022-10-16T09:56:37;101942.56;;;17.42;66.90
70521;BME280;58442;52.716;23.560;2022-10-16T09:58:52;101937.56;;;17.48;66.83
70521;BME280;58442;52.716;23.560;2022-10-16T10:00:54;101926.27;;;17.53;66.77
70521;BME280;58442;52.716;23.560;2022-10-16T10:02:55;101921.64;;;17.57;66.66
70521;BME280;58442;52.716;23.560;2022-10-16T10:04:57;101926.40;;;17.60;66.59
70521;BME280;58442;52.716;23.560;2022-10-16T10:06:58;101928.40;;;17.63;66.54
70521;BME280;58442;52.716;23.560;2022-10-16T10:13:45;101934.39;;;17.69;66.34
70521;BME280;58442;52.716;23.560;2022-10-16T10:15:46;101932.44;;;17.69;66.29
70521;BME280;58442;52.716;23.560;2022-10-16T10:17:53;101933.70;;;17.72;66.23
70521;BME280;58442;52.716;23.560;2022-10-16T10:20:13;101941.22;;;17.75;66.06
70521;BME280;58442;52.716;23.560;2022-10-16T10:24:21;101932.66;;;17.80;65.94
70521;BME280;58442;52.716;23.560;2022-10-16T10:26:26;101931.91;;;17.83;65.87
70521;BME280;58442;52.716;23.560;2022-10-16T10:33:08;101925.21;;;17.81;65.79
70521;BME280;58442;52.716;23.560;2022-10-16T10:35:22;101928.34;;;17.79;65.87
70521;BME280;58442;52.716;23.560;2022-10-16T10:37:45;101939.33;;;17.79;65.84
70521;BME280;58442;52.716;23.560;2022-10-16T10:39:46;101938.54;;;17.79;65.75
70521;BME280;58442;52.716;23.560;2022-10-16T10:44:14;101946.71;;;17.75;65.75
70521;BME280;58442;52.716;23.560;2022-10-16T10:46:30;101939.22;;;17.72;65.73
70521;BME280;58442;52.716;23.560;2022-10-16T10:50:54;101934.39;;;17.69;65.75
70521;BME280;58442;52.716;23.560;2022-10-16T10:57:42;101928.11;;;17.68;65.71
70521;BME280;58442;52.716;23.560;2022-10-16T11:02:05;101921.54;;;17.73;65.60
70521;BME280;58442;52.716;23.560;2022-10-16T11:06:31;101918.95;;;17.84;65.51
70521;BME280;58442;52.716;23.560;2022-10-16T11:08:41;101910.40;;;17.89;65.45
70521;BME280;58442;52.716;23.560;2022-10-16T11:10:53;101917.55;;;17.93;65.37
70521;BME280;58442;52.716;23.560;2022-10-16T11:15:35;101904.75;;;18.04;65.19
70521;BME280;58442;52.716;23.560;2022-10-16T11:17:50;101908.77;;;18.11;65.06
70521;BME280;58442;52.716;23.560;2022-10-16T11:22:13;101900.96;;;18.13;64.81
70521;BME280;58442;52.716;23.560;2022-10-16T11:24:20;101895.88;;;18.15;64.71
70521;BME280;58442;52.716;23.560;2022-10-16T11:26:27;101890.78;;;18.17;64.70
70521;BME280;58442;52.716;23.560;2022-10-16T11:28:45;101893.54;;;18.17;64.68
70521;BME280;58442;52.716;23.560;2022-10-16T11:35:22;101885.03;;;18.25;64.48
70521;BME280;58442;52.716;23.560;2022-10-16T11:37:30;101886.24;;;18.28;64.39
70521;BME280;58442;52.716;23.560;2022-10-16T11:39:35;101881.53;;;18.28;64.37
70521;BME280;58442;52.716;23.560;2022-10-16T11:41:53;101892.16;;;18.30;64.35
70521;BME280;58442;52.716;23.560;2022-10-16T11:46:18;101895.33;;;18.32;64.36
70521;BME280;58442;52.716;23.560;2022-10-16T11:48:32;101898.52;;;18.34;64.35
70521;BME280;58442;52.716;23.560;2022-10-16T11:53:07;101909.53;;;18.34;64.28
70521;BME280;58442;52.716;23.560;2022-10-16T11:55:18;101908.36;;;18.35;64.29
70521;BME280;58442;52.716;23.560;2022-10-16T11:57:29;101910.70;;;18.33;64.32
70521;BME280;58442;52.716;23.560;2022-10-16T12:04:29;101925.15;;;18.26;64.30
70521;BME280;58442;52.716;23.560;2022-10-16T12:06:52;101927.83;;;18.23;64.35
70521;BME280;58442;52.716;23.560;2022-10-16T12:09:05;101929.00;;;18.22;64.34
70521;BME280;58442;52.716;23.560;2022-10-16T12:15:33;101936.73;;;18.13;64.28
70521;BME280;58442;52.716;23.560;2022-10-16T12:17:36;101937.46;;;18.10;64.33
70521;BME280;58442;52.716;23.560;2022-10-16T12:19:43;101935.46;;;18.07;64.37